createdAt,value
2022-08-05T00:01:35.553Z,19.20
2022-08-05T00:04:03.657Z,19.20
2022-08-05T00:06:36.067Z,19.20
2022-08-05T00:09:04.035Z,19.10
2022-08-05T00:11:35.148Z,19.10
2022-08-05T00:14:17.202Z,19.00
2022-08-05T00:16:53.247Z,19.00
2022-08-05T00:19:23.307Z,18.90
2022-08-05T00:21:52.112Z,18.90
2022-08-05T00:24:24.675Z,18.90
2022-08-05T00:26:53.010Z,18.80
2022-08-05T00:29:22.414Z,18.70
2022-08-05T00:31:53.340Z,18.70
2022-08-05T00:34:53.308Z,18.60
2022-08-05T00:37:23.364Z,18.50
2022-08-05T00:39:58.036Z,18.60
2022-08-05T00:42:33.978Z,18.60
2022-08-05T00:45:01.582Z,18.50
2022-08-05T00:47:31.659Z,18.50
2022-08-05T00:50:15.956Z,18.50
2022-08-05T00:52:45.543Z,18.40
2022-08-05T00:55:14.064Z,18.40
2022-08-05T00:57:58.077Z,18.30
2022-08-05T01:00:27.546Z,18.30
2022-08-05T01:02:54.957Z,18.30
2022-08-05T01:05:27.392Z,18.30
2022-08-05T01:08:40.619Z,18.30
2022-08-05T01:10:52.837Z,18.20
2022-08-05T01:13:58.967Z,18.20
2022-08-05T01:16:40.176Z,18.20
2022-08-05T01:19:56.413Z,18.20
2022-08-05T01:22:41.784Z,18.20
2022-08-05T01:25:39.813Z,18.10
2022-08-05T01:28:19.008Z,18.10
2022-08-05T01:30:59.416Z,18.10
2022-08-05T01:33:35.453Z,18.10
2022-08-05T01:36:07.133Z,18.00
2022-08-05T01:38:40.836Z,18.00
2022-08-05T01:41:08.686Z,17.90
2022-08-05T01:43:37.267Z,17.90
2022-08-05T01:46:39.162Z,17.80
2022-08-05T01:48:55.216Z,17.80
2022-08-05T01:51:22.326Z,17.80
2022-08-05T01:53:57.582Z,17.70
2022-08-05T01:58:11.438Z,17.70
2022-08-05T01:59:17.430Z,17.60
2022-08-05T02:01:44.473Z,17.60
2022-08-05T02:04:12.664Z,17.50
2022-08-05T02:06:39.592Z,17.50
2022-08-05T02:09:07.004Z,17.50
2022-08-05T02:11:47.947Z,17.50
2022-08-05T02:14:22.421Z,17.40
2022-08-05T02:16:55.569Z,17.40
2022-08-05T02:19:28.640Z,17.40
2022-08-05T02:22:25.612Z,17.40
2022-08-05T02:24:57.303Z,17.30
2022-08-05T02:27:30.100Z,17.30
2022-08-05T02:30:16.758Z,17.30
2022-08-05T02:32:47.238Z,17.20
2022-08-05T02:35:18.963Z,17.20
2022-08-05T02:37:53.795Z,17.20
2022-08-05T02:40:21.627Z,17.20
2022-08-05T02:42:52.696Z,17.20
2022-08-05T02:45:23.821Z,17.20
2022-08-05T02:48:11.730Z,17.10
2022-08-05T02:50:43.535Z,17.10
2022-08-05T02:53:11.972Z,17.10
2022-08-05T02:55:54.207Z,17.10
2022-08-05T02:58:27.360Z,17.10
2022-08-05T03:00:56.236Z,17.10
2022-08-05T03:03:23.390Z,17.10
2022-08-05T03:06:54.783Z,17.00
2022-08-05T03:08:42.769Z,17.00
2022-08-05T03:11:55.114Z,17.00
2022-08-05T03:14:13.394Z,17.00
2022-08-05T03:16:40.770Z,16.90
2022-08-05T03:19:12.995Z,16.90
2022-08-05T03:21:48.628Z,16.90
2022-08-05T03:24:16.906Z,16.90
2022-08-05T03:26:49.297Z,16.80
2022-08-05T03:29:17.300Z,16.80
2022-08-05T03:31:56.945Z,16.70
2022-08-05T03:34:27.898Z,16.70
2022-08-05T03:36:55.872Z,16.70
2022-08-05T03:39:27.010Z,16.60
2022-08-05T03:41:56.366Z,16.60
2022-08-05T03:44:24.067Z,16.60
2022-08-05T03:46:50.890Z,16.60
2022-08-05T03:49:18.035Z,16.60
2022-08-05T03:52:38.609Z,16.50
2022-08-05T03:55:51.172Z,16.50
2022-08-05T03:57:42.444Z,16.50
2022-08-05T04:00:15.920Z,16.50
2022-08-05T04:02:57.975Z,16.40
2022-08-05T04:05:35.861Z,16.30
2022-08-05T04:08:05.875Z,16.30
2022-08-05T04:10:42.891Z,16.30
2022-08-05T04:13:09.883Z,16.30
2022-08-05T04:15:36.849Z,16.30
2022-08-05T04:18:07.239Z,16.20
2022-08-05T04:20:36.662Z,16.20
2022-08-05T04:23:03.675Z,16.10
2022-08-05T04:25:57.371Z,16.10
2022-08-05T04:28:18.598Z,16.10
2022-08-05T04:30:49.776Z,16.00
2022-08-05T04:33:17.701Z,16.00
2022-08-05T04:36:16.212Z,16.00
2022-08-05T04:38:58.240Z,16.10
2022-08-05T04:41:36.902Z,15.90
2022-08-05T04:44:09.046Z,15.90
2022-08-05T04:46:37.347Z,15.90
2022-08-05T04:49:05.730Z,15.90
2022-08-05T04:51:39.292Z,16.00
2022-08-05T04:54:06.249Z,15.90
2022-08-05T04:56:37.238Z,15.90
2022-08-05T04:59:22.415Z,15.90
2022-08-05T05:02:07.035Z,15.90
2022-08-05T05:04:43.911Z,15.90
2022-08-05T05:07:17.771Z,15.90
2022-08-05T05:09:45.313Z,15.90
2022-08-05T05:12:12.161Z,15.90
2022-08-05T05:14:49.533Z,15.90
2022-08-05T05:17:23.544Z,15.90
2022-08-05T05:19:56.592Z,15.90
2022-08-05T05:22:26.022Z,15.90
2022-08-05T05:24:56.852Z,15.90
2022-08-05T05:27:41.162Z,15.90
2022-08-05T05:30:31.305Z,15.90
2022-08-05T05:33:09.148Z,15.90
2022-08-05T05:35:47.449Z,15.90
2022-08-05T05:38:14.787Z,15.90
2022-08-05T05:40:51.544Z,15.90
2022-08-05T05:43:54.442Z,15.80
2022-08-05T05:46:15.904Z,15.80
2022-08-05T05:48:45.965Z,15.80
2022-08-05T05:51:23.998Z,15.80
2022-08-05T05:53:57.321Z,15.80
2022-08-05T05:56:33.021Z,15.80
2022-08-05T05:59:05.387Z,15.80
2022-08-05T06:01:40.407Z,15.90
2022-08-05T06:04:08.346Z,15.80
2022-08-05T06:06:42.979Z,15.90
2022-08-05T06:09:17.513Z,15.90
2022-08-05T06:12:01.130Z,16.00
2022-08-05T06:14:29.785Z,16.00
2022-08-05T06:16:57.944Z,16.00
2022-08-05T06:19:33.013Z,16.10
2022-08-05T06:22:03.562Z,16.10
2022-08-05T06:24:30.994Z,16.10
2022-08-05T06:26:58.033Z,16.10
2022-08-05T06:29:46.266Z,16.10
2022-08-05T06:32:25.213Z,16.10
2022-08-05T06:34:56.384Z,16.20
2022-08-05T06:37:56.114Z,16.20
2022-08-05T06:40:12.545Z,16.30
2022-08-05T06:42:41.754Z,16.30
2022-08-05T06:45:09.625Z,16.30
2022-08-05T06:48:36.175Z,16.30
2022-08-05T06:50:34.754Z,16.30
2022-08-05T06:53:11.424Z,16.40
2022-08-05T06:55:41.999Z,16.40
2022-08-05T06:58:19.708Z,16.50
2022-08-05T07:00:59.745Z,16.50
2022-08-05T07:03:32.525Z,16.60
2022-08-05T07:06:06.126Z,16.60
2022-08-05T07:08:47.874Z,16.60
2022-08-05T07:11:22.379Z,16.70
2022-08-05T07:14:20.037Z,16.70
2022-08-05T07:17:58.540Z,16.70
2022-08-05T07:22:35.473Z,16.70
2022-08-05T07:25:23.147Z,16.90
2022-08-05T07:27:57.127Z,16.90
2022-08-05T07:30:32.820Z,16.90
2022-08-05T07:33:01.768Z,16.90
2022-08-05T07:36:01.625Z,16.90
2022-08-05T07:38:32.882Z,17.00
2022-08-05T07:42:09.231Z,17.00
2022-08-05T07:43:56.610Z,17.10
2022-08-05T07:46:27.537Z,17.10
2022-08-05T07:49:01.772Z,17.20
2022-08-05T07:51:40.347Z,17.20
2022-08-05T07:54:18.995Z,17.20
2022-08-05T07:57:01.718Z,17.30
2022-08-05T07:59:40.055Z,17.40
2022-08-05T08:02:15.830Z,17.40
2022-08-05T08:04:48.220Z,17.40
2022-08-05T08:07:16.063Z,17.40
2022-08-05T08:09:45.226Z,17.40
2022-08-05T08:12:35.586Z,17.50
2022-08-05T08:15:02.205Z,17.60
2022-08-05T08:17:36.068Z,17.60
2022-08-05T08:20:42.675Z,17.60
2022-08-05T08:22:57.501Z,17.70
2022-08-05T08:25:26.990Z,17.80
2022-08-05T08:28:03.148Z,17.80
2022-08-05T08:30:39.235Z,17.80
2022-08-05T08:33:14.536Z,17.80
2022-08-05T08:35:52.432Z,17.90
2022-08-05T08:38:36.023Z,17.90
2022-08-05T08:41:08.729Z,18.00
2022-08-05T08:45:17.858Z,18.10
2022-08-05T08:46:24.699Z,18.10
2022-08-05T08:49:06.329Z,18.20
2022-08-05T08:52:04.246Z,18.20
2022-08-05T08:54:31.313Z,18.20
2022-08-05T08:56:59.721Z,18.30
2022-08-05T08:59:27.447Z,18.30
2022-08-05T09:01:57.591Z,18.30
2022-08-05T09:04:30.159Z,18.40
2022-08-05T09:06:58.341Z,18.50
2022-08-05T09:09:34.764Z,18.60
2022-08-05T09:12:19.815Z,18.60
2022-08-05T09:14:58.017Z,18.70
2022-08-05T09:17:42.733Z,18.70
2022-08-05T09:20:36.365Z,18.80
2022-08-05T09:23:09.171Z,18.80
2022-08-05T09:26:00.253Z,19.00
2022-08-05T09:28:32.500Z,19.00
2022-08-05T09:31:18.118Z,19.20
2022-08-05T09:33:56.238Z,19.20
2022-08-05T09:36:27.700Z,19.20
2022-08-05T09:39:18.056Z,19.40
2022-08-05T09:42:03.770Z,19.60
2022-08-05T09:44:37.120Z,19.90
2022-08-05T09:47:12.487Z,20.10
2022-08-05T09:49:54.870Z,20.40
2022-08-05T09:52:33.796Z,20.70
2022-08-05T09:55:58.313Z,21.00
2022-08-05T09:57:58.668Z,21.30
2022-08-05T10:00:27.597Z,21.40
2022-08-05T10:02:58.360Z,21.70
2022-08-05T10:05:27.029Z,22.10
2022-08-05T10:08:34.893Z,22.40
2022-08-05T10:10:50.325Z,22.50
2022-08-05T10:13:31.619Z,22.40
2022-08-05T10:16:00.777Z,22.30
2022-08-05T10:18:32.634Z,22.40
2022-08-05T10:21:08.467Z,22.50
2022-08-05T10:23:59.671Z,22.60
2022-08-05T10:26:32.492Z,22.60
2022-08-05T10:29:01.061Z,22.70
2022-08-05T10:33:01.561Z,22.90
2022-08-05T10:34:17.006Z,23.20
2022-08-05T10:36:44.336Z,23.40
2022-08-05T10:39:25.020Z,23.60
2022-08-05T10:42:18.492Z,23.70
2022-08-05T10:44:46.209Z,24.00
2022-08-05T10:47:26.646Z,24.20
2022-08-05T10:50:32.820Z,24.10
2022-08-05T10:53:01.151Z,24.30
2022-08-05T10:55:32.918Z,24.20
2022-08-05T10:58:18.128Z,24.00
2022-08-05T11:00:55.008Z,24.00
2022-08-05T11:03:30.231Z,24.30
2022-08-05T11:06:15.837Z,24.50
2022-08-05T11:09:03.272Z,24.60
2022-08-05T11:11:52.136Z,24.60
2022-08-05T11:14:42.807Z,24.70
2022-08-05T11:17:58.883Z,24.80
2022-08-05T11:20:41.618Z,25.20
2022-08-05T11:24:05.409Z,25.40
2022-08-05T11:26:32.118Z,25.70
2022-08-05T11:29:12.310Z,26.20
2022-08-05T11:31:58.457Z,26.60
2022-08-05T11:34:39.520Z,26.60
2022-08-05T11:38:26.611Z,26.80
2022-08-05T11:40:02.859Z,26.90
2022-08-05T11:42:37.819Z,27.30
2022-08-05T11:45:14.405Z,27.50
2022-08-05T11:47:54.679Z,27.60
2022-08-05T11:50:22.868Z,27.40
2022-08-05T11:52:53.190Z,27.20
2022-08-05T11:55:21.659Z,27.30
2022-08-05T11:58:09.615Z,27.40
2022-08-05T12:00:39.100Z,27.30
2022-08-05T12:03:31.432Z,27.30
2022-08-05T12:06:10.180Z,27.60
2022-08-05T12:08:54.790Z,27.90
2022-08-05T12:11:28.281Z,28.00
2022-08-05T12:14:08.494Z,27.90
2022-08-05T12:16:45.205Z,28.20
2022-08-05T12:20:27.240Z,28.50
2022-08-05T12:22:01.267Z,28.50
2022-08-05T12:24:28.395Z,28.40
2022-08-05T12:26:57.048Z,28.30
2022-08-05T12:29:26.672Z,28.00
2022-08-05T12:31:54.769Z,27.70
2022-08-05T12:34:29.275Z,27.20
2022-08-05T12:37:00.505Z,26.80
2022-08-05T12:39:34.558Z,26.80
2022-08-05T12:42:14.929Z,26.40
2022-08-05T12:44:43.155Z,26.30
2022-08-05T12:47:12.466Z,26.20
2022-08-05T12:50:03.354Z,26.10
2022-08-05T12:52:39.702Z,26.10
2022-08-05T12:55:25.598Z,26.40
2022-08-05T12:58:49.514Z,26.60
2022-08-05T13:02:01.799Z,26.50
2022-08-05T13:03:32.887Z,26.20
2022-08-05T13:06:01.438Z,25.80
2022-08-05T13:08:32.194Z,25.40
2022-08-05T13:11:02.322Z,25.10
2022-08-05T13:14:06.784Z,25.00
2022-08-05T13:16:19.576Z,25.40
2022-08-05T13:18:55.185Z,25.90
2022-08-05T13:21:37.939Z,26.00
2022-08-05T13:24:15.496Z,26.00
2022-08-05T13:27:02.584Z,26.20
2022-08-05T13:29:37.599Z,26.80
2022-08-05T13:32:05.681Z,26.80
2022-08-05T13:34:33.309Z,26.80
2022-08-05T13:37:01.008Z,27.10
2022-08-05T13:40:14.057Z,27.60
2022-08-05T13:42:15.372Z,27.70
2022-08-05T13:44:46.167Z,27.80
2022-08-05T13:47:34.724Z,28.00
2022-08-05T13:50:04.768Z,28.00
2022-08-05T13:52:35.493Z,28.10
2022-08-05T13:55:07.973Z,28.40
2022-08-05T13:57:50.886Z,28.80
2022-08-05T14:00:26.960Z,29.30
2022-08-05T14:03:01.386Z,29.40
2022-08-05T14:05:48.061Z,29.70
2022-08-05T14:08:21.006Z,29.90
2022-08-05T14:11:03.151Z,29.80
2022-08-05T14:13:42.214Z,29.40
2022-08-05T14:16:11.648Z,29.20
2022-08-05T14:18:44.920Z,29.30
2022-08-05T14:22:07.803Z,29.30
2022-08-05T14:23:58.759Z,29.50
2022-08-05T14:26:35.818Z,30.10
2022-08-05T14:29:06.131Z,30.50
2022-08-05T14:32:03.296Z,30.70
2022-08-05T14:34:35.008Z,30.80
2022-08-05T14:37:13.295Z,30.90
2022-08-05T14:39:49.546Z,31.10
2022-08-05T14:42:20.765Z,30.90
2022-08-05T14:44:49.180Z,30.70
2022-08-05T14:47:16.195Z,30.60
2022-08-05T14:49:56.424Z,30.40
2022-08-05T14:52:51.819Z,30.30
2022-08-05T14:55:15.654Z,30.40
2022-08-05T14:57:55.962Z,30.60
2022-08-05T15:00:27.685Z,30.50
2022-08-05T15:02:59.316Z,30.50
2022-08-05T15:05:30.127Z,30.00
2022-08-05T15:08:17.936Z,29.40
2022-08-05T15:11:01.311Z,28.80
2022-08-05T15:13:28.549Z,28.10
2022-08-05T15:16:13.391Z,27.60
2022-08-05T15:18:40.798Z,27.30
2022-08-05T15:21:08.779Z,27.20
2022-08-05T15:23:35.726Z,27.30
2022-08-05T15:26:05.047Z,27.60
2022-08-05T15:28:34.351Z,27.90
2022-08-05T15:31:03.597Z,28.00
2022-08-05T15:34:05.722Z,28.10
2022-08-05T15:36:24.223Z,28.10
2022-08-05T15:41:03.773Z,27.60
2022-08-05T15:41:57.631Z,27.40
2022-08-05T15:44:27.600Z,27.50
2022-08-05T15:46:55.659Z,27.50
2022-08-05T15:49:40.801Z,27.40
2022-08-05T15:52:16.648Z,27.40
2022-08-05T15:54:56.536Z,27.40
2022-08-05T15:57:23.684Z,27.30
2022-08-05T15:59:56.685Z,27.20
2022-08-05T16:02:25.531Z,27.00
2022-08-05T16:04:55.976Z,26.90
2022-08-05T16:07:23.032Z,26.80
2022-08-05T16:09:50.162Z,26.70
2022-08-05T16:12:17.732Z,26.50
2022-08-05T16:14:47.216Z,26.20
2022-08-05T16:17:14.188Z,25.90
2022-08-05T16:20:03.095Z,25.60
2022-08-05T16:22:34.256Z,25.40
2022-08-05T16:25:08.170Z,25.30
2022-08-05T16:28:00.512Z,25.20
2022-08-05T16:30:26.653Z,25.20
2022-08-05T16:32:56.261Z,25.50
2022-08-05T16:35:27.756Z,25.70
2022-08-05T16:38:11.959Z,25.80
2022-08-05T16:40:54.926Z,25.60
2022-08-05T16:43:23.854Z,25.30
2022-08-05T16:46:07.623Z,25.00
2022-08-05T16:48:39.228Z,24.70
2022-08-05T16:51:09.894Z,24.40
2022-08-05T16:54:04.274Z,24.30
2022-08-05T16:56:29.136Z,24.20
2022-08-05T16:58:58.991Z,24.10
2022-08-05T17:01:28.076Z,24.00
2022-08-05T17:04:15.053Z,24.20
2022-08-05T17:06:42.179Z,24.50
2022-08-05T17:09:09.412Z,25.00
2022-08-05T17:11:48.232Z,25.40
2022-08-05T17:14:34.417Z,25.70
2022-08-05T17:17:04.653Z,25.90
2022-08-05T17:19:31.604Z,26.20
2022-08-05T17:21:58.845Z,26.10
2022-08-05T17:24:36.513Z,25.90
2022-08-05T17:27:09.346Z,25.80
2022-08-05T17:29:41.084Z,25.70
2022-08-05T17:32:17.093Z,25.40
2022-08-05T17:34:47.695Z,25.20
2022-08-05T17:37:39.610Z,25.20
2022-08-05T17:40:02.429Z,25.10
2022-08-05T17:42:32.260Z,24.80
2022-08-05T17:45:17.955Z,24.60
2022-08-05T17:47:53.611Z,24.50
2022-08-05T17:50:29.434Z,24.20
2022-08-05T17:53:08.575Z,24.00
2022-08-05T17:55:37.735Z,23.80
2022-08-05T17:58:09.937Z,23.60
2022-08-05T18:00:44.370Z,23.50
2022-08-05T18:03:33.223Z,23.30
2022-08-05T18:06:06.167Z,23.20
2022-08-05T18:08:40.650Z,23.10
2022-08-05T18:11:24.312Z,22.90
2022-08-05T18:14:00.791Z,22.70
2022-08-05T18:16:31.171Z,22.70
2022-08-05T18:18:58.426Z,22.50
2022-08-05T18:21:26.477Z,22.50
2022-08-05T18:24:12.655Z,22.40
2022-08-05T18:26:41.236Z,22.40
2022-08-05T18:29:10.576Z,22.40
2022-08-05T18:31:37.497Z,22.40
2022-08-05T18:34:12.827Z,22.50
2022-08-05T18:36:43.696Z,22.50
2022-08-05T18:39:42.082Z,22.50
2022-08-05T18:42:04.756Z,22.60
2022-08-05T18:44:49.273Z,22.60
2022-08-05T18:47:22.817Z,22.70
2022-08-05T18:50:12.777Z,22.90
2022-08-05T18:52:50.986Z,23.10
2022-08-05T18:55:18.833Z,23.40
2022-08-05T18:57:52.726Z,23.60
2022-08-05T19:00:28.798Z,23.70
2022-08-05T19:02:57.651Z,23.90
2022-08-05T19:06:11.758Z,23.90
2022-08-05T19:08:33.861Z,23.70
2022-08-05T19:11:04.495Z,23.40
2022-08-05T19:13:35.740Z,23.10
2022-08-05T19:16:04.776Z,22.90
2022-08-05T19:18:51.244Z,22.70
2022-08-05T19:21:18.705Z,22.60
2022-08-05T19:24:06.676Z,22.40
2022-08-05T19:26:35.170Z,22.30
2022-08-05T19:29:11.179Z,22.20
2022-08-05T19:31:44.825Z,22.10
2022-08-05T19:34:18.777Z,22.00
2022-08-05T19:36:46.160Z,21.90
2022-08-05T19:39:17.502Z,21.70
2022-08-05T19:42:08.091Z,21.60
2022-08-05T19:44:32.192Z,21.50
2022-08-05T19:47:00.322Z,21.50
2022-08-05T19:49:30.372Z,21.40
2022-08-05T19:52:09.261Z,21.30
2022-08-05T19:55:00.455Z,21.20
2022-08-05T19:57:49.057Z,21.30
2022-08-05T20:00:20.982Z,21.10
2022-08-05T20:02:48.186Z,21.00
2022-08-05T20:05:16.544Z,20.90
2022-08-05T20:07:58.891Z,20.90
2022-08-05T20:10:26.494Z,20.80
2022-08-05T20:12:55.181Z,20.80
2022-08-05T20:15:52.277Z,20.70
2022-08-05T20:18:33.303Z,20.70
2022-08-05T20:20:57.513Z,20.70
2022-08-05T20:23:39.378Z,20.60
2022-08-05T20:26:16.020Z,20.60
2022-08-05T20:28:44.582Z,20.50
2022-08-05T20:31:12.431Z,20.50
2022-08-05T20:33:42.329Z,20.40
2022-08-05T20:36:21.059Z,20.40
2022-08-05T20:38:53.397Z,20.40
2022-08-05T20:41:27.163Z,20.30
2022-08-05T20:44:17.654Z,20.30
2022-08-05T20:46:47.581Z,20.20
2022-08-05T20:49:15.191Z,20.20
2022-08-05T20:51:53.366Z,20.10
2022-08-05T20:54:22.179Z,20.00
2022-08-05T20:56:49.549Z,20.00
2022-08-05T20:59:19.034Z,20.00
2022-08-05T21:01:46.994Z,19.90
2022-08-05T21:04:14.125Z,19.80
2022-08-05T21:06:45.249Z,19.80
2022-08-05T21:09:14.372Z,19.80
2022-08-05T21:12:07.293Z,19.70
2022-08-05T21:14:35.233Z,19.70
2022-08-05T21:17:05.344Z,19.70
2022-08-05T21:19:46.743Z,19.60
2022-08-05T21:22:23.012Z,19.60
2022-08-05T21:24:51.641Z,19.50
2022-08-05T21:27:25.327Z,19.50
2022-08-05T21:29:57.674Z,19.50
2022-08-05T21:32:27.057Z,19.40
2022-08-05T21:35:08.842Z,19.40
2022-08-05T21:37:47.162Z,19.30
2022-08-05T21:40:14.658Z,19.30
2022-08-05T21:42:45.250Z,19.30
2022-08-05T21:45:24.600Z,19.20
2022-08-05T21:47:56.552Z,19.20
2022-08-05T21:50:25.681Z,19.20
2022-08-05T21:52:53.035Z,19.10
2022-08-05T21:56:01.049Z,19.10
2022-08-05T21:58:10.495Z,19.10
2022-08-05T22:00:40.091Z,19.00
2022-08-05T22:03:09.971Z,19.00
2022-08-05T22:05:49.039Z,19.00
2022-08-05T22:08:22.500Z,18.90
2022-08-05T22:10:51.829Z,18.90
2022-08-05T22:14:06.587Z,18.90
2022-08-05T22:16:32.329Z,18.80
2022-08-05T22:18:58.642Z,18.70
2022-08-05T22:21:26.457Z,18.70
2022-08-05T22:24:12.986Z,18.70
2022-08-05T22:27:01.139Z,18.60
2022-08-05T22:29:34.128Z,18.60
2022-08-05T22:32:03.196Z,18.50
2022-08-05T22:34:31.725Z,18.50
2022-08-05T22:36:59.024Z,18.50
2022-08-05T22:39:33.297Z,18.40
2022-08-05T22:42:10.948Z,18.40
2022-08-05T22:44:41.205Z,18.30
2022-08-05T22:47:15.114Z,18.30
2022-08-05T22:50:20.848Z,18.30
2022-08-05T22:52:49.341Z,18.30
2022-08-05T22:55:19.346Z,18.20
2022-08-05T22:57:49.048Z,18.10
2022-08-05T23:00:20.581Z,18.20
2022-08-05T23:02:48.877Z,18.10
2022-08-05T23:05:16.859Z,18.10
2022-08-05T23:07:48.531Z,18.10
2022-08-05T23:10:20.311Z,18.00
2022-08-05T23:12:51.506Z,18.00
2022-08-05T23:15:51.705Z,18.00
2022-08-05T23:18:18.514Z,17.90
2022-08-05T23:20:49.865Z,17.90
2022-08-05T23:23:16.881Z,17.80
2022-08-05T23:25:51.362Z,17.80
2022-08-05T23:28:23.863Z,17.80
2022-08-05T23:30:54.785Z,17.70
2022-08-05T23:34:02.670Z,17.80
2022-08-05T23:36:10.532Z,17.80
2022-08-05T23:38:38.224Z,17.70
2022-08-05T23:41:05.436Z,17.70
2022-08-05T23:44:04.388Z,17.70
2022-08-05T23:46:21.930Z,17.60
2022-08-05T23:48:59.751Z,17.60
2022-08-05T23:51:53.395Z,17.60
2022-08-05T23:54:30.263Z,17.50
2022-08-05T23:57:06.004Z,17.50
